createdAt,value
2018-06-22T00:01:58.706Z,6.30
2018-06-22T00:04:26.273Z,3.37
2018-06-22T00:06:53.846Z,4.80
2018-06-22T00:09:21.465Z,5.73
2018-06-22T00:11:49.049Z,6.37
2018-06-22T00:14:16.721Z,10.23
2018-06-22T00:16:44.302Z,6.43
2018-06-22T00:19:11.874Z,6.73
2018-06-22T00:21:39.447Z,7.50
2018-06-22T00:24:07.043Z,5.53
2018-06-22T00:26:34.610Z,3.83
2018-06-22T00:29:02.234Z,5.53
2018-06-22T00:31:29.735Z,3.20
2018-06-22T00:33:57.319Z,5.10
2018-06-22T00:36:24.939Z,4.43
2018-06-22T00:38:52.516Z,6.60
2018-06-22T00:41:20.037Z,5.78
2018-06-22T00:45:37.195Z,6.17
2018-06-22T00:48:04.761Z,6.77
2018-06-22T00:50:32.256Z,4.67
2018-06-22T00:52:59.841Z,4.27
2018-06-22T00:55:27.306Z,6.50
2018-06-22T00:57:54.822Z,9.13
2018-06-22T01:00:22.475Z,11.50
2018-06-22T01:02:50.105Z,7.50
2018-06-22T01:05:17.570Z,5.50
2018-06-22T01:07:45.132Z,6.00
2018-06-22T01:10:12.622Z,7.27
2018-06-22T01:12:40.202Z,7.80
2018-06-22T01:15:07.699Z,5.93
2018-06-22T01:17:35.326Z,7.17
2018-06-22T01:20:02.936Z,5.97
2018-06-22T01:22:30.527Z,7.90
2018-06-22T01:24:57.996Z,7.37
2018-06-22T01:27:25.496Z,7.27
2018-06-22T01:29:53.061Z,4.37
2018-06-22T01:32:20.629Z,5.93
2018-06-22T01:34:48.235Z,7.07
2018-06-22T01:37:15.749Z,6.00
2018-06-22T01:39:43.366Z,6.47
2018-06-22T01:42:10.961Z,6.27
2018-06-22T01:44:38.426Z,6.20
2018-06-22T01:47:05.921Z,8.40
2018-06-22T01:49:33.489Z,8.50
2018-06-22T01:52:01.070Z,6.60
2018-06-22T01:54:29.438Z,5.20
2018-06-22T01:56:57.037Z,5.47
2018-06-22T01:59:24.596Z,7.37
2018-06-22T02:01:52.345Z,3.20
2018-06-22T02:04:19.966Z,6.70
2018-06-22T02:06:47.451Z,8.73
2018-06-22T02:09:15.082Z,7.20
2018-06-22T02:11:42.545Z,8.93
2018-06-22T02:14:10.156Z,5.60
2018-06-22T02:16:37.721Z,13.43
2018-06-22T02:19:05.353Z,4.37
2018-06-22T02:21:32.849Z,7.37
2018-06-22T02:24:00.577Z,5.10
2018-06-22T02:26:28.177Z,8.93
2018-06-22T02:28:55.766Z,5.03
2018-06-22T02:31:23.401Z,7.30
2018-06-22T02:33:50.862Z,4.77
2018-06-22T02:36:18.400Z,9.10
2018-06-22T02:38:45.982Z,5.87
2018-06-22T02:41:13.606Z,5.60
2018-06-22T02:43:41.218Z,5.37
2018-06-22T02:46:08.811Z,8.93
2018-06-22T02:48:36.305Z,9.73
2018-06-22T02:51:03.950Z,7.83
2018-06-22T02:53:31.559Z,4.03
2018-06-22T02:55:59.205Z,6.77
2018-06-22T02:58:26.802Z,7.73
2018-06-22T03:00:54.407Z,7.80
2018-06-22T03:03:22.038Z,8.00
2018-06-22T03:05:49.617Z,4.93
2018-06-22T03:08:17.206Z,3.73
2018-06-22T03:10:44.791Z,3.03
2018-06-22T03:13:12.426Z,6.57
2018-06-22T03:15:39.909Z,5.70
2018-06-22T03:18:07.515Z,7.23
2018-06-22T03:20:35.110Z,5.87
2018-06-22T03:23:02.630Z,4.47
2018-06-22T03:25:30.240Z,9.53
2018-06-22T03:27:57.710Z,11.77
2018-06-22T03:30:25.310Z,5.93
2018-06-22T03:32:53.420Z,8.53
2018-06-22T03:35:21.050Z,4.67
2018-06-22T03:37:48.660Z,6.90
2018-06-22T03:40:16.248Z,7.27
2018-06-22T03:42:43.865Z,7.87
2018-06-22T03:45:11.471Z,4.80
2018-06-22T03:47:39.403Z,7.97
2018-06-22T03:50:06.982Z,4.90
2018-06-22T03:52:34.485Z,6.37
2018-06-22T03:55:02.111Z,9.07
2018-06-22T03:57:29.761Z,6.80
2018-06-22T03:59:57.332Z,6.53
2018-06-22T04:02:24.879Z,8.97
2018-06-22T04:04:52.490Z,11.03
2018-06-22T04:07:20.325Z,9.07
2018-06-22T04:09:47.906Z,6.43
2018-06-22T04:12:15.397Z,7.43
2018-06-22T04:14:42.989Z,5.33
2018-06-22T04:17:10.516Z,5.63
2018-06-22T04:19:38.000Z,3.40
2018-06-22T04:22:05.606Z,9.57
2018-06-22T04:24:33.216Z,6.97
2018-06-22T04:27:00.846Z,3.70
2018-06-22T04:29:28.457Z,10.17
2018-06-22T04:31:56.022Z,7.57
2018-06-22T04:34:23.629Z,5.03
2018-06-22T04:36:51.216Z,4.90
2018-06-22T04:39:18.772Z,3.77
2018-06-22T04:41:46.382Z,7.63
2018-06-22T04:44:13.921Z,7.13
2018-06-22T04:46:41.578Z,7.60
2018-06-22T04:49:09.168Z,7.83
2018-06-22T04:51:36.830Z,6.80
2018-06-22T04:54:04.340Z,9.90
2018-06-22T04:56:31.944Z,7.53
2018-06-22T04:58:59.752Z,7.10
2018-06-22T05:01:27.691Z,4.97
2018-06-22T05:03:55.321Z,10.33
2018-06-22T05:06:22.892Z,6.30
2018-06-22T05:08:50.415Z,5.73
2018-06-22T05:11:17.987Z,11.57
2018-06-22T05:13:45.638Z,9.20
2018-06-22T05:16:13.202Z,10.23
2018-06-22T05:18:40.803Z,11.80
2018-06-22T05:21:08.433Z,7.07
2018-06-22T05:23:36.078Z,7.63
2018-06-22T05:26:04.091Z,11.03
2018-06-22T05:28:31.639Z,8.07
2018-06-22T05:30:59.263Z,7.47
2018-06-22T05:33:26.856Z,8.73
2018-06-22T05:35:54.625Z,6.60
2018-06-22T05:38:22.138Z,8.93
2018-06-22T05:40:49.707Z,10.20
2018-06-22T05:43:17.322Z,12.87
2018-06-22T05:45:44.778Z,11.70
2018-06-22T05:48:12.308Z,13.10
2018-06-22T05:50:39.895Z,12.53
2018-06-22T05:53:07.417Z,10.90
2018-06-22T05:55:35.037Z,12.47
2018-06-22T06:00:52.967Z,15.43
2018-06-22T06:03:20.645Z,10.77
2018-06-22T06:05:48.287Z,10.47
2018-06-22T06:08:15.997Z,13.67
2018-06-22T06:10:43.663Z,13.60
2018-06-22T06:13:11.259Z,11.70
2018-06-22T06:15:38.762Z,9.50
2018-06-22T06:18:06.423Z,13.30
2018-06-22T06:20:34.163Z,9.63
2018-06-22T06:23:01.807Z,7.60
2018-06-22T06:25:29.547Z,10.93
2018-06-22T06:27:57.221Z,10.70
2018-06-22T06:30:24.981Z,9.27
2018-06-22T06:32:52.688Z,12.70
2018-06-22T06:35:20.333Z,10.73
2018-06-22T06:37:47.861Z,14.40
2018-06-22T06:40:15.601Z,8.90
2018-06-22T06:42:43.272Z,11.60
2018-06-22T06:45:10.897Z,7.27
2018-06-22T06:47:38.666Z,10.97
2018-06-22T06:50:06.239Z,8.50
2018-06-22T06:52:33.919Z,6.40
2018-06-22T06:55:01.584Z,8.50
2018-06-22T06:57:29.129Z,9.63
2018-06-22T06:59:56.629Z,8.80
2018-06-22T07:02:24.315Z,8.23
2018-06-22T07:04:51.962Z,4.97
2018-06-22T07:07:19.607Z,5.33
2018-06-22T07:09:47.198Z,5.23
2018-06-22T07:12:14.868Z,9.93
2018-06-22T07:14:42.530Z,6.20
2018-06-22T07:17:10.200Z,6.40
2018-06-22T07:19:38.221Z,8.43
2018-06-22T07:22:05.895Z,5.03
2018-06-22T07:24:33.574Z,7.93
2018-06-22T07:27:01.217Z,9.80
2018-06-22T07:29:28.850Z,9.03
2018-06-22T07:31:56.531Z,10.33
2018-06-22T07:34:24.189Z,5.57
2018-06-22T07:36:52.446Z,4.23
2018-06-22T07:39:20.103Z,5.93
2018-06-22T07:41:47.782Z,4.33
2018-06-22T07:44:15.348Z,7.27
2018-06-22T07:46:42.925Z,6.97
2018-06-22T07:49:10.575Z,5.03
2018-06-22T07:51:38.164Z,7.67
2018-06-22T07:54:05.864Z,5.00
2018-06-22T07:56:33.513Z,4.43
2018-06-22T07:59:01.239Z,6.43
2018-06-22T08:01:28.764Z,8.10
2018-06-22T08:03:56.493Z,8.10
2018-06-22T08:06:24.172Z,7.13
2018-06-22T08:08:51.975Z,9.47
2018-06-22T08:11:19.658Z,5.87
2018-06-22T08:13:47.347Z,7.43
2018-06-22T08:16:14.940Z,4.30
2018-06-22T08:18:42.570Z,4.50
2018-06-22T08:21:10.288Z,7.43
2018-06-22T08:23:37.904Z,5.43
2018-06-22T08:26:05.513Z,8.23
2018-06-22T08:28:33.194Z,4.03
2018-06-22T08:31:00.869Z,3.97
2018-06-22T08:33:28.430Z,5.33
2018-06-22T08:35:56.089Z,6.93
2018-06-22T08:38:23.708Z,6.50
2018-06-22T08:40:51.376Z,6.63
2018-06-22T08:43:19.099Z,3.67
2018-06-22T08:45:46.824Z,3.97
2018-06-22T08:48:14.403Z,8.07
2018-06-22T08:50:41.938Z,7.07
2018-06-22T08:53:09.605Z,4.70
2018-06-22T08:55:37.286Z,5.67
2018-06-22T08:58:04.885Z,5.23
2018-06-22T09:00:32.580Z,5.63
2018-06-22T09:03:00.272Z,5.67
2018-06-22T09:05:27.970Z,2.03
2018-06-22T09:07:55.543Z,4.40
2018-06-22T09:10:23.223Z,5.30
2018-06-22T09:12:50.888Z,4.10
2018-06-22T09:15:18.608Z,5.23
2018-06-22T09:17:46.258Z,3.50
2018-06-22T09:20:13.964Z,2.00
2018-06-22T09:22:41.640Z,5.23
2018-06-22T09:25:09.350Z,4.30
2018-06-22T09:27:36.949Z,3.00
2018-06-22T09:30:04.665Z,3.60
2018-06-22T09:32:32.473Z,3.00
2018-06-22T09:35:00.189Z,5.58
2018-06-22T09:37:27.759Z,3.02
2018-06-22T09:39:55.462Z,3.20
2018-06-22T09:42:23.143Z,2.73
2018-06-22T09:44:50.823Z,1.90
2018-06-22T09:47:18.450Z,3.80
2018-06-22T09:49:46.103Z,3.43
2018-06-22T09:52:13.664Z,3.17
2018-06-22T09:54:41.174Z,4.90
2018-06-22T09:57:08.861Z,1.87
2018-06-22T09:59:36.597Z,3.93
2018-06-22T10:02:04.349Z,3.47
2018-06-22T10:04:32.005Z,2.87
2018-06-22T10:06:59.523Z,2.50
2018-06-22T10:09:27.123Z,5.30
2018-06-22T10:11:55.867Z,4.67
2018-06-22T10:14:23.526Z,1.93
2018-06-22T10:16:51.041Z,2.63
2018-06-22T10:19:18.764Z,2.23
2018-06-22T10:21:46.442Z,2.83
2018-06-22T10:24:14.170Z,1.53
2018-06-22T10:26:41.883Z,2.93
2018-06-22T10:29:09.559Z,2.23
2018-06-22T10:31:37.139Z,2.07
2018-06-22T10:34:04.897Z,5.67
2018-06-22T10:36:32.523Z,2.97
2018-06-22T10:39:00.219Z,3.07
2018-06-22T10:41:27.908Z,2.53
2018-06-22T10:43:55.606Z,4.67
2018-06-22T10:46:23.231Z,2.23
2018-06-22T10:48:50.903Z,6.97
2018-06-22T10:51:18.627Z,0.93
2018-06-22T10:53:46.212Z,3.03
2018-06-22T10:56:13.923Z,2.03
2018-06-22T10:58:41.475Z,3.47
2018-06-22T11:01:09.033Z,2.50
2018-06-22T11:03:36.744Z,3.50
2018-06-22T11:06:04.468Z,1.90
2018-06-22T11:08:32.125Z,2.07
2018-06-22T11:10:59.793Z,1.53
2018-06-22T11:13:27.531Z,4.13
2018-06-22T11:15:55.315Z,1.97
2018-06-22T11:18:22.910Z,3.57
2018-06-22T11:20:50.539Z,5.03
2018-06-22T11:23:18.240Z,3.07
2018-06-22T11:28:15.095Z,3.57
2018-06-22T11:30:42.855Z,4.57
2018-06-22T11:33:10.498Z,5.23
2018-06-22T11:35:38.261Z,2.43
2018-06-22T11:38:05.775Z,1.60
2018-06-22T11:40:33.468Z,2.03
2018-06-22T11:45:35.137Z,1.97
2018-06-22T11:48:02.780Z,3.23
2018-06-22T11:50:30.651Z,2.97
2018-06-22T11:52:58.379Z,1.03
2018-06-22T11:55:26.045Z,1.87
2018-06-22T11:57:53.761Z,1.53
2018-06-22T12:00:21.499Z,3.73
2018-06-22T12:02:49.157Z,2.97
2018-06-22T12:05:16.852Z,2.63
2018-06-22T12:07:44.564Z,2.63
2018-06-22T12:10:12.244Z,2.33
2018-06-22T12:12:39.971Z,2.07
2018-06-22T12:15:07.594Z,3.57
2018-06-22T12:17:35.313Z,2.90
2018-06-22T12:20:03.107Z,2.00
2018-06-22T12:22:30.671Z,1.50
2018-06-22T12:24:58.355Z,1.87
2018-06-22T12:27:26.315Z,2.97
2018-06-22T12:29:54.021Z,1.83
2018-06-22T12:32:21.735Z,3.87
2018-06-22T12:34:49.487Z,2.20
2018-06-22T12:37:17.157Z,2.00
2018-06-22T12:39:44.821Z,3.80
2018-06-22T12:42:12.439Z,3.13
2018-06-22T12:44:40.073Z,3.80
2018-06-22T12:47:07.650Z,1.90
2018-06-22T12:49:35.316Z,4.07
2018-06-22T12:52:02.864Z,5.13
2018-06-22T12:54:30.514Z,3.87
2018-06-22T12:56:58.195Z,2.57
2018-06-22T12:59:25.916Z,3.00
2018-06-22T13:01:53.915Z,2.80
2018-06-22T13:04:21.581Z,5.20
2018-06-22T13:06:49.289Z,3.03
2018-06-22T13:09:17.000Z,3.23
2018-06-22T13:11:44.669Z,2.77
2018-06-22T13:14:12.397Z,3.70
2018-06-22T13:16:40.046Z,5.20
2018-06-22T13:19:07.764Z,4.00
2018-06-22T13:21:49.348Z,3.90
2018-06-22T13:24:17.250Z,3.67
2018-06-22T13:26:45.018Z,3.30
2018-06-22T13:29:12.737Z,2.97
2018-06-22T13:31:40.425Z,3.37
2018-06-22T13:34:08.134Z,1.97
2018-06-22T13:36:35.724Z,6.40
2018-06-22T13:39:05.645Z,2.70
2018-06-22T13:41:33.365Z,5.13
2018-06-22T13:44:01.094Z,1.93
2018-06-22T13:46:28.837Z,3.10
2018-06-22T13:48:56.327Z,4.70
2018-06-22T13:51:24.042Z,2.17
2018-06-22T13:53:51.591Z,2.43
2018-06-22T13:56:19.301Z,3.83
2018-06-22T13:58:46.984Z,4.83
2018-06-22T14:01:14.587Z,1.93
2018-06-22T14:03:47.751Z,3.73
2018-06-22T14:06:21.215Z,5.03
2018-06-22T14:08:48.816Z,2.33
2018-06-22T14:11:16.481Z,4.57
2018-06-22T14:13:44.201Z,2.43
2018-06-22T14:16:11.865Z,5.83
2018-06-22T14:18:39.516Z,3.37
2018-06-22T14:21:07.225Z,4.97
2018-06-22T14:23:34.960Z,5.20
2018-06-22T14:26:02.677Z,4.50
2018-06-22T14:28:30.231Z,3.50
2018-06-22T14:30:58.026Z,3.37
2018-06-22T14:33:25.706Z,3.10
2018-06-22T14:35:53.371Z,4.27
2018-06-22T14:38:21.095Z,4.90
2018-06-22T14:40:48.791Z,4.23
2018-06-22T14:43:16.406Z,4.00
2018-06-22T14:45:44.041Z,2.30
2018-06-22T14:48:11.704Z,3.93
2018-06-22T14:50:39.395Z,3.20
2018-06-22T14:53:11.590Z,1.73
2018-06-22T14:57:49.857Z,3.47
2018-06-22T15:00:23.124Z,5.70
2018-06-22T15:02:56.315Z,4.17
2018-06-22T15:05:29.520Z,3.20
2018-06-22T15:07:59.532Z,3.63
2018-06-22T15:10:27.289Z,3.37
2018-06-22T15:12:55.043Z,3.47
2018-06-22T15:15:32.187Z,2.63
2018-06-22T15:17:59.875Z,4.83
2018-06-22T15:20:27.580Z,2.50
2018-06-22T15:22:55.296Z,3.27
2018-06-22T15:25:23.050Z,4.33
2018-06-22T15:27:50.719Z,5.10
2018-06-22T15:30:18.406Z,4.90
2018-06-22T15:32:46.032Z,5.23
2018-06-22T15:35:19.500Z,4.47
2018-06-22T15:37:52.876Z,5.77
2018-06-22T15:40:26.037Z,3.33
2018-06-22T15:42:59.472Z,2.73
2018-06-22T15:45:28.848Z,3.90
2018-06-22T15:48:02.083Z,3.83
2018-06-22T15:50:35.492Z,6.23
2018-06-22T15:53:08.968Z,3.17
2018-06-22T15:55:39.682Z,5.00
2018-06-22T15:58:07.401Z,3.83
2018-06-22T16:00:35.111Z,3.03
2018-06-22T16:03:08.220Z,3.60
2018-06-22T16:05:35.898Z,7.80
2018-06-22T16:08:03.816Z,4.97
2018-06-22T16:10:31.556Z,3.23
2018-06-22T16:12:59.278Z,8.63
2018-06-22T16:15:32.489Z,3.70
2018-06-22T16:18:05.702Z,3.23
2018-06-22T16:20:38.925Z,4.03
2018-06-22T16:23:12.210Z,2.33
2018-06-22T16:25:45.349Z,5.10
2018-06-22T16:28:13.051Z,2.63
2018-06-22T16:30:40.802Z,3.60
2018-06-22T16:33:08.435Z,4.23
2018-06-22T16:35:36.146Z,4.30
2018-06-22T16:38:03.919Z,4.23
2018-06-22T16:40:31.687Z,2.93
2018-06-22T16:42:59.420Z,1.97
2018-06-22T16:45:27.099Z,3.57
2018-06-22T16:47:54.770Z,3.93
2018-06-22T16:50:22.518Z,3.40
2018-06-22T16:52:50.200Z,3.23
2018-06-22T16:55:17.930Z,2.50
2018-06-22T16:57:45.610Z,5.17
2018-06-22T17:00:13.371Z,2.87
2018-06-22T17:02:40.935Z,4.23
2018-06-22T17:05:08.542Z,3.77
2018-06-22T17:07:41.747Z,2.80
2018-06-22T17:10:14.975Z,3.30
2018-06-22T17:12:48.167Z,1.87
2018-06-22T17:15:21.318Z,2.33
2018-06-22T17:17:54.462Z,4.30
2018-06-22T17:20:22.067Z,4.17
2018-06-22T17:22:49.748Z,5.90
2018-06-22T17:25:17.310Z,4.23
2018-06-22T17:27:45.098Z,2.70
2018-06-22T17:30:12.980Z,3.13
2018-06-22T17:32:40.693Z,4.00
2018-06-22T17:35:09.465Z,2.20
2018-06-22T17:37:37.126Z,5.00
2018-06-22T17:40:04.960Z,3.47
2018-06-22T17:42:32.659Z,6.20
2018-06-22T17:45:00.228Z,4.00
2018-06-22T17:47:28.039Z,3.10
2018-06-22T17:49:59.827Z,3.90
2018-06-22T17:52:27.640Z,2.67
2018-06-22T17:54:55.352Z,4.27
2018-06-22T17:57:22.952Z,3.03
2018-06-22T17:59:56.190Z,2.30
2018-06-22T18:02:29.623Z,2.57
2018-06-22T18:05:03.048Z,3.90
2018-06-22T18:07:35.651Z,3.23
2018-06-22T18:10:09.343Z,4.23
2018-06-22T18:12:42.695Z,1.93
2018-06-22T18:15:10.556Z,2.93
2018-06-22T18:17:38.333Z,2.73
2018-06-22T18:20:05.940Z,2.73
2018-06-22T18:22:33.652Z,3.90
2018-06-22T18:25:01.349Z,6.10
2018-06-22T18:27:29.150Z,3.70
2018-06-22T18:29:56.918Z,5.90
2018-06-22T18:32:24.593Z,3.20
2018-06-22T18:34:52.331Z,2.73
2018-06-22T18:37:20.030Z,4.30
2018-06-22T18:39:47.749Z,3.17
2018-06-22T18:42:15.456Z,2.70
2018-06-22T18:44:43.167Z,2.73
2018-06-22T18:47:10.912Z,2.80
2018-06-22T18:49:38.608Z,3.13
2018-06-22T18:52:11.859Z,4.03
2018-06-22T18:54:45.369Z,1.90
2018-06-22T18:57:18.567Z,3.70
2018-06-22T18:59:51.682Z,2.20
2018-06-22T19:03:22.387Z,3.37
2018-06-22T19:05:50.203Z,4.67
2018-06-22T19:08:17.933Z,4.30
2018-06-22T19:10:45.649Z,4.03
2018-06-22T19:13:13.429Z,2.63
2018-06-22T19:15:41.383Z,4.67
2018-06-22T19:18:09.127Z,3.63
2018-06-22T19:20:36.737Z,4.93
2018-06-22T19:23:04.450Z,2.83
2018-06-22T19:25:32.159Z,3.63
2018-06-22T19:27:59.934Z,2.70
2018-06-22T19:30:27.587Z,2.50
2018-06-22T19:32:55.276Z,3.60
2018-06-22T19:35:22.948Z,3.33
2018-06-22T19:37:50.666Z,2.27
2018-06-22T19:40:18.251Z,2.43
2018-06-22T19:42:45.954Z,1.83
2018-06-22T19:45:19.333Z,2.70
2018-06-22T19:47:52.645Z,1.93
2018-06-22T19:50:25.773Z,6.43
2018-06-22T19:52:59.052Z,3.13
2018-06-22T19:55:26.623Z,2.77
2018-06-22T19:57:54.381Z,2.03
2018-06-22T20:00:22.117Z,6.03
2018-06-22T20:02:49.847Z,3.80
2018-06-22T20:05:17.487Z,2.40
2018-06-22T20:07:45.264Z,4.33
2018-06-22T20:10:12.986Z,2.27
2018-06-22T20:12:40.727Z,3.97
2018-06-22T20:15:08.563Z,6.07
2018-06-22T20:17:36.384Z,4.83
2018-06-22T20:20:05.980Z,3.33
2018-06-22T20:22:33.747Z,3.07
2018-06-22T20:25:07.307Z,3.13
2018-06-22T20:27:35.183Z,2.83
2018-06-22T20:30:02.981Z,3.13
2018-06-22T20:32:31.151Z,3.27
2018-06-22T20:35:04.749Z,2.43
2018-06-22T20:37:38.413Z,2.67
2018-06-22T20:40:11.989Z,4.43
2018-06-22T20:42:45.304Z,2.47
2018-06-22T20:45:18.959Z,3.47
2018-06-22T20:47:52.532Z,4.97
2018-06-22T20:50:26.178Z,3.97
2018-06-22T20:52:54.135Z,3.53
2018-06-22T20:55:21.893Z,3.50
2018-06-22T20:57:49.768Z,4.13
2018-06-22T21:00:17.863Z,2.70
2018-06-22T21:02:45.730Z,3.37
2018-06-22T21:05:13.444Z,4.23
2018-06-22T21:07:41.351Z,6.80
2018-06-22T21:10:09.367Z,4.10
2018-06-22T21:12:40.408Z,3.63
2018-06-22T21:15:05.805Z,2.43
2018-06-22T21:17:33.883Z,2.93
2018-06-22T21:20:01.775Z,5.63
2018-06-22T21:22:29.655Z,3.90
2018-06-22T21:24:57.449Z,4.53
2018-06-22T21:27:31.189Z,3.50
2018-06-22T21:30:04.770Z,3.50
2018-06-22T21:32:38.000Z,3.23
2018-06-22T21:35:11.582Z,4.83
2018-06-22T21:37:45.792Z,2.80
2018-06-22T21:40:14.219Z,5.10
2018-06-22T21:42:42.282Z,4.40
2018-06-22T21:45:10.165Z,4.33
2018-06-22T21:47:37.874Z,3.50
2018-06-22T21:50:05.698Z,2.83
2018-06-22T21:52:33.959Z,2.80
2018-06-22T21:55:01.730Z,5.00
2018-06-22T21:57:29.462Z,3.97
2018-06-22T21:59:59.768Z,3.33
2018-06-22T22:02:30.952Z,5.93
2018-06-22T22:04:59.108Z,5.40
2018-06-22T22:07:28.068Z,5.80
2018-06-22T22:09:58.662Z,6.23
2018-06-22T22:12:27.948Z,4.90
2018-06-22T22:14:59.698Z,3.50
2018-06-22T22:17:32.727Z,4.53
2018-06-22T22:20:01.874Z,2.80
2018-06-22T22:22:31.563Z,5.27
2018-06-22T22:25:06.924Z,5.57
2018-06-22T22:27:36.052Z,3.70
2018-06-22T22:30:04.137Z,3.87
2018-06-22T22:32:31.908Z,3.67
2018-06-22T22:34:59.554Z,3.90
2018-06-22T22:37:27.268Z,3.70
2018-06-22T22:39:54.823Z,4.57
2018-06-22T22:42:22.501Z,4.10
2018-06-22T22:44:50.070Z,3.57
2018-06-22T22:47:17.769Z,3.47
2018-06-22T22:49:45.447Z,6.13
2018-06-22T22:52:13.074Z,4.13
2018-06-22T22:54:40.668Z,4.27
2018-06-22T22:57:08.323Z,7.00
2018-06-22T22:59:35.992Z,5.90
2018-06-22T23:02:03.707Z,5.00
2018-06-22T23:04:31.413Z,6.57
2018-06-22T23:06:58.919Z,4.43
2018-06-22T23:09:26.577Z,3.67
2018-06-22T23:11:54.272Z,6.30
2018-06-22T23:14:21.938Z,10.03
2018-06-22T23:16:49.612Z,5.70
2018-06-22T23:19:17.219Z,7.07
2018-06-22T23:21:44.773Z,5.07
2018-06-22T23:24:12.503Z,5.07
2018-06-22T23:26:40.429Z,3.00
2018-06-22T23:29:07.928Z,6.20
2018-06-22T23:31:35.786Z,3.77
2018-06-22T23:34:03.324Z,5.50
2018-06-22T23:36:30.865Z,5.80
2018-06-22T23:38:58.547Z,6.53
2018-06-22T23:41:27.060Z,21.90
2018-06-22T23:43:54.789Z,13.47
2018-06-22T23:46:22.453Z,9.10
2018-06-22T23:48:49.993Z,10.00
2018-06-22T23:51:17.543Z,5.53
2018-06-22T23:53:45.264Z,4.73
2018-06-22T23:56:13.048Z,5.73
2018-06-22T23:58:40.977Z,4.50
